Airfield :
LOGIN :

Register | Disclaimer

   EN    FR    IT 

 










Legend :    VFR   Marginal VFR   IFR   Intensive IFR   Very Intensive IFR
Visi :
Ceiling :
>= 8 km
>= 3000ft
5 to 8 km
1000 to 3000 ft
1500m to 5 km
500 to 1000 ft
800 to 1500m
200 to 500 ft
< 800m
< 200 ft
Symbols :   Thunderstorms  Fog  Heavy snow  Heavy precipitations  Wind > 20 kt
SIGMETs :     Misc.  Thunderstorms  Icing  Turbulence  Mountain Waves  Volcanic Ashes







- Airport Elevation : 122 ft
- IATA code : TXL


EDDT - Berlin Tegel Int.

CURRENT METAR :
  • 251120Z 28013G23KT 250V320 9999 -SHRA FEW011 SCT018CB SCT035 07/02 Q1013 TEMPO 3000 SHGSRA

EXPIRED METARs :
  • 251050Z 28012G23KT 250V310 9999 VCSH FEW018CB SCT045 06/02 Q1013 TEMPO 3000 SHGSRA
  • 251020Z 28008KT 260V320 9999 SCT015 BKN035 06/02 Q1013 BECMG 28015G25KT
  • 250950Z 28009KT 250V320 9999 SCT015 BKN030 05/02 Q1013 BECMG 28015G25KT
  • 250920Z 28008KT 250V320 9999 FEW009 BKN012 BKN024 04/02 Q1012 BECMG 28015G25KT
  • 250850Z 28010KT 250V310 9999 FEW009 SCT011 BKN018 04/02 Q1012 BECMG 28015G25KT

TAF TAF EDDT
Valid from the 25 at 12:00 until the 26 at 12:00 UTC


251100Z 2512/2612 28007KT 9999 BKN035
TEMPO 2512/2518 29015G30KT 4000 SHRAGS BKN012CB
PROB30
TEMPO 2512/2515 2000 TSGS BKN008CB
BECMG 2602/2606 28012KT BKN007
TEMPO 2603/2607 BKN004
BECMG 2607/2610 28015G25KT SCT013 BKN030
No reported NOTAMs for that airfield.



MET'MAP, your aeronautical weather chart ! - Copyright ORBIFLY December 2007 - Disclaimer

ORBIFLY MET'MAP TEAM :

Programming & Development : Alexandra Zaïnal
Concept & Development : Baudouin d'Aumeries
Co-Development & Prog : Marc-Olivier Méhu
Technical & hardware support : Manuel Goepfert

Contact : metmap@orbifly.com




SOURCES & CREDITS :

   NOAA